Time;durP1;ratioP1;P1;durP2;ratioP2;P2;SDS_P1;SDS_P2;PMS_P1;PMS_P2;Temp;Humidity;BMP_temperature;BMP_pressure;BME280_temperature;BME280_humidity;BME280_pressure;Samples;Min_cycle;Max_cycle;Signal;HPM_P1;HPM_P2
2023/09/07 00:00:49;;;;;;;5.95;2.13;;;20.10;99.90;;;;;;5049196;28;20093;-70
2023/09/07 00:03:14;;;;;;;2.58;1.90;;;20.20;99.90;;;;;;5031826;28;20496;-70
2023/09/07 00:05:41;;;;;;;6.25;1.80;;;20.20;99.90;;;;;;5030810;28;20029;-69
2023/09/07 00:08:06;;;;;;;4.00;2.00;;;20.20;99.90;;;;;;5049164;28;20048;-70
2023/09/07 00:10:35;;;;;;;3.97;2.30;;;19.90;99.90;;;;;;5031130;28;20179;-70
2023/09/07 00:13:02;;;;;;;5.63;2.15;;;20.20;99.90;;;;;;5048921;28;20803;-73
2023/09/07 00:15:28;;;;;;;4.70;1.95;;;20.40;99.90;;;;;;5049105;28;20137;-72
2023/09/07 00:17:53;;;;;;;5.88;2.35;;;20.20;99.90;;;;;;5047942;28;20056;-69
2023/09/07 00:20:21;;;;;;;8.75;2.53;;;19.90;99.90;;;;;;5049109;28;20037;-74
2023/09/07 00:22:47;;;;;;;4.88;1.70;;;20.20;99.90;;;;;;5030397;28;20052;-70
2023/09/07 00:25:13;;;;;;;6.70;2.38;;;20.20;99.90;;;;;;5048830;28;20037;-72
2023/09/07 00:27:39;;;;;;;6.40;2.20;;;20.00;99.90;;;;;;5048326;28;20041;-72
2023/09/07 00:30:06;;;;;;;5.38;2.42;;;20.10;99.90;;;;;;5030316;28;20046;-70
2023/09/07 00:32:38;;;;;;;4.20;2.35;;;20.00;99.90;;;;;;5024615;28;20059;-69
2023/09/07 00:35:05;;;;;;;6.80;2.45;;;20.10;99.90;;;;;;5030606;28;20094;-72
2023/09/07 00:37:31;;;;;;;4.22;1.70;;;20.10;99.90;;;;;;5047680;28;20064;-70
2023/09/07 00:39:56;;;;;;;4.68;2.00;;;20.20;99.90;;;;;;5030477;28;20052;-72
2023/09/07 00:42:22;;;;;;;3.90;2.45;;;20.00;99.90;;;;;;5030173;28;20069;-70
2023/09/07 00:44:48;;;;;;;5.72;2.42;;;20.00;99.90;;;;;;5048328;28;20416;-70
2023/09/07 00:47:15;;;;;;;5.72;2.10;;;20.10;99.90;;;;;;5030635;28;20057;-71
2023/09/07 00:49:40;;;;;;;4.32;2.08;;;20.00;99.90;;;;;;5048307;28;20124;-70
2023/09/07 00:52:09;;;;;;;5.63;2.17;;;20.10;99.90;;;;;;5030685;28;20143;-72
2023/09/07 00:54:38;;;;;;;3.95;2.42;;;20.10;99.90;;;;;;5048056;28;20041;-70
2023/09/07 00:57:04;;;;;;;5.07;2.28;;;20.00;99.90;;;;;;5048323;28;20044;-69
2023/09/07 00:59:31;;;;;;;6.57;2.20;;;20.00;99.90;;;;;;5030093;28;20057;-70
2023/09/07 01:01:57;;;;;;;5.35;2.08;;;19.90;99.90;;;;;;5048032;28;20045;-70
2023/09/07 01:04:22;;;;;;;6.63;2.03;;;19.90;99.90;;;;;;5048160;28;20045;-71
2023/09/07 01:06:56;;;;;;;4.18;2.33;;;20.00;99.90;;;;;;5047583;28;20048;-71
2023/09/07 01:09:25;;;;;;;4.85;2.15;;;20.00;99.90;;;;;;5030236;28;20059;-72
2023/09/07 01:11:50;;;;;;;3.75;2.15;;;20.00;99.90;;;;;;5047778;28;20075;-70
2023/09/07 01:14:17;;;;;;;3.17;2.13;;;20.00;99.90;;;;;;5047840;28;20115;-70
2023/09/07 01:16:42;;;;;;;5.93;2.35;;;20.00;99.90;;;;;;5029855;28;20143;-71
2023/09/07 01:19:09;;;;;;;4.97;2.13;;;20.00;99.90;;;;;;5025823;28;20132;-70
2023/09/07 01:21:39;;;;;;;4.25;3.17;;;20.00;99.90;;;;;;5047574;28;20121;-70
2023/09/07 01:24:07;;;;;;;6.30;2.80;;;20.10;99.90;;;;;;5029700;28;20041;-71
2023/09/07 01:26:34;;;;;;;3.83;2.28;;;20.00;99.90;;;;;;5029226;28;20045;-70
2023/09/07 01:29:01;;;;;;;3.70;2.10;;;20.00;99.90;;;;;;5029364;28;20047;-71
2023/09/07 01:31:26;;;;;;;4.57;2.88;;;19.90;99.90;;;;;;5047155;28;21341;-70
2023/09/07 01:33:52;;;;;;;5.95;2.33;;;19.90;99.90;;;;;;5047442;28;20036;-72
2023/09/07 01:36:17;;;;;;;6.80;2.67;;;19.80;99.90;;;;;;5029631;28;20179;-72
2023/09/07 01:38:43;;;;;;;5.47;3.90;;;19.90;99.90;;;;;;5046901;28;20048;-72
2023/09/07 01:41:08;;;;;;;3.58;2.10;;;19.80;99.90;;;;;;5044221;28;20044;-70
2023/09/07 01:43:35;;;;;;;4.40;2.28;;;19.70;99.90;;;;;;5046777;28;20040;-70
2023/09/07 01:46:01;;;;;;;5.95;2.15;;;;;;;;;;5046991;28;20471;-70
2023/09/07 01:48:26;;;;;;;3.20;2.30;;;19.90;99.90;;;;;;5046702;28;20158;-69
2023/09/07 01:50:53;;;;;;;4.78;2.58;;;19.80;99.90;;;;;;5046522;28;20401;-69
2023/09/07 01:53:19;;;;;;;4.28;2.58;;;19.80;99.90;;;;;;5046433;28;20072;-71
2023/09/07 01:55:45;;;;;;;5.35;2.33;;;;;;;;;;5028590;28;20091;-70
2023/09/07 01:58:11;;;;;;;5.55;2.80;;;19.50;99.90;;;;;;5028998;28;20078;-73
2023/09/07 02:00:38;;;;;;;5.35;2.45;;;19.40;99.90;;;;;;5046695;28;20036;-70
2023/09/07 02:03:04;;;;;;;3.50;2.80;;;19.30;99.90;;;;;;5028707;28;20053;-70
2023/09/07 02:05:32;;;;;;;5.82;2.50;;;;;;;;;;5028226;28;20052;-70
2023/09/07 02:07:58;;;;;;;6.47;2.67;;;;;;;;;;5046239;28;20045;-69
2023/09/07 02:10:24;;;;;;;4.60;2.50;;;;;;;;;;5046545;28;20037;-70
2023/09/07 02:12:50;;;;;;;4.93;2.80;;;;;;;;;;5046139;28;20097;-72
2023/09/07 02:15:15;;;;;;;8.27;3.58;;;18.90;99.90;;;;;;5020511;28;20052;-71
2023/09/07 02:17:44;;;;;;;11.10;4.13;;;18.90;99.90;;;;;;5028483;28;20052;-70
2023/09/07 02:20:11;;;;;;;6.80;3.08;;;18.70;99.90;;;;;;5027981;28;20079;-72
2023/09/07 02:22:37;;;;;;;4.13;2.97;;;;;;;;;;5028753;28;20062;-70
2023/09/07 02:25:03;;;;;;;4.88;3.15;;;19.00;99.90;;;;;;5046027;28;20072;-69
2023/09/07 02:27:29;;;;;;;3.70;2.70;;;;;;;;;;5027821;28;20049;-70
2023/09/07 02:29:54;;;;;;;6.93;3.97;;;19.10;99.90;;;;;;5046560;28;20111;-74
2023/09/07 02:32:20;;;;;;;4.13;3.13;;;18.90;99.90;;;;;;5045941;28;20037;-71
2023/09/07 02:34:46;;;;;;;4.60;3.03;;;18.80;99.90;;;;;;5023693;28;20143;-71
2023/09/07 02:37:11;;;;;;;4.70;3.40;;;18.70;99.90;;;;;;5027408;28;20049;-69
2023/09/07 02:39:37;;;;;;;8.05;3.30;;;;;;;;;;5028162;28;20053;-71
2023/09/07 02:42:03;;;;;;;5.25;3.13;;;18.40;99.90;;;;;;5045660;28;20112;-69
2023/09/07 02:44:29;;;;;;;6.18;3.10;;;18.70;99.90;;;;;;5046023;28;20045;-69
2023/09/07 02:46:55;;;;;;;6.18;3.40;;;;;;;;;;5027677;28;20051;-70
2023/09/07 02:49:21;;;;;;;8.80;3.25;;;;;;;;;;5028177;28;20398;-71
2023/09/07 02:51:47;;;;;;;4.25;3.20;;;;;;;;;;5027477;28;20106;-69
2023/09/07 02:54:13;;;;;;;5.18;2.75;;;;;;;;;;5027951;28;20400;-70
2023/09/07 02:56:38;;;;;;;4.40;2.83;;;18.40;99.90;;;;;;5027656;28;20045;-69
2023/09/07 02:59:04;;;;;;;7.25;3.45;;;;;;;;;;5027649;28;20124;-77
2023/09/07 03:01:31;;;;;;;5.75;2.50;;;;;;;;;;5045614;28;20768;-69
2023/09/07 03:03:57;;;;;;;9.18;2.78;;;;;;;;;;5045763;28;20110;-71
2023/09/07 03:06:23;;;;;;;5.80;3.17;;;;;;;;;;5027360;28;20040;-71
2023/09/07 03:08:48;;;;;;;6.47;2.85;;;;;;;;;;5027615;28;20092;-69
2023/09/07 03:11:14;;;;;;;10.38;3.30;;;18.30;99.90;;;;;;5045850;28;20047;-71
2023/09/07 03:13:40;;;;;;;5.85;3.33;;;18.20;99.90;;;;;;5027595;28;20049;-72
2023/09/07 03:16:06;;;;;;;4.70;2.63;;;18.20;99.90;;;;;;5045379;28;20052;-69
2023/09/07 03:18:31;;;;;;;4.35;2.83;;;17.30;99.90;;;;;;5045386;28;20044;-71
2023/09/07 03:21:00;;;;;;;4.82;2.80;;;17.90;99.90;;;;;;5045345;28;20033;-69
2023/09/07 03:23:26;;;;;;;5.00;2.95;;;;;;;;;;5027306;28;20139;-72
2023/09/07 03:25:51;;;;;;;5.88;3.42;;;17.70;99.90;;;;;;5027398;28;20519;-70
2023/09/07 03:28:17;;;;;;;5.13;3.50;;;17.70;99.90;;;;;;5045656;28;20037;-69
2023/09/07 03:30:43;;;;;;;4.35;3.20;;;;;;;;;;5045583;28;20128;-69
2023/09/07 03:33:08;;;;;;;6.22;3.92;;;17.60;99.90;;;;;;5034420;28;20041;-74
2023/09/07 03:35:34;;;;;;;6.82;3.38;;;17.60;99.90;;;;;;5045092;28;20094;-72
2023/09/07 03:37:59;;;;;;;7.63;3.45;;;17.60;99.90;;;;;;5045627;28;20060;-71
2023/09/07 03:40:25;;;;;;;6.47;3.40;;;17.50;99.90;;;;;;5045614;28;20053;-69
2023/09/07 03:42:51;;;;;;;6.55;3.92;;;;;;;;;;5027436;28;20052;-70
2023/09/07 03:45:17;;;;;;;7.55;3.85;;;;;;;;;;5045190;28;20037;-71
2023/09/07 03:47:43;;;;;;;7.70;3.78;;;17.50;99.90;;;;;;5027250;28;20127;-69
2023/09/07 03:50:09;;;;;;;7.15;3.67;;;17.40;99.90;;;;;;5027491;28;20080;-72
2023/09/07 03:52:35;;;;;;;9.55;4.30;;;;;;;;;;5045394;28;20041;-69
2023/09/07 03:55:01;;;;;;;5.28;3.85;;;17.60;99.90;;;;;;5045535;28;20056;-70
2023/09/07 03:57:27;;;;;;;7.10;4.20;;;17.80;99.90;;;;;;5026765;28;20534;-72
2023/09/07 03:59:55;;;;;;;7.47;4.05;;;17.90;99.90;;;;;;5045305;28;20056;-70
2023/09/07 04:02:21;;;;;;;8.57;4.03;;;;;;;;;;5027231;28;20120;-70
2023/09/07 04:04:51;;;;;;;7.05;3.83;;;17.90;99.90;;;;;;5026766;28;20064;-72
2023/09/07 04:07:17;;;;;;;7.47;4.07;;;;;;;;;;5045235;28;20080;-70
2023/09/07 04:09:43;;;;;;;6.90;4.13;;;17.90;99.90;;;;;;5027321;28;20118;-73
2023/09/07 04:12:09;;;;;;;7.85;4.00;;;17.60;99.90;;;;;;5007598;28;20058;-69
2023/09/07 04:14:35;;;;;;;8.45;4.32;;;;;;;;;;5045891;28;20041;-72
2023/09/07 04:17:02;;;;;;;7.38;3.60;;;;;;;;;;5030951;28;20052;-71
2023/09/07 04:19:28;;;;;;;5.80;3.97;;;;;;;;;;5030696;28;20087;-71
2023/09/07 04:21:53;;;;;;;8.95;4.28;;;17.20;99.90;;;;;;5048105;28;20523;-69
2023/09/07 04:24:19;;;;;;;5.72;4.00;;;;;;;;;;5030473;28;20055;-70
2023/09/07 04:26:47;;;;;;;6.68;3.85;;;17.20;99.90;;;;;;5030257;28;20124;-72
2023/09/07 04:29:13;;;;;;;8.32;3.90;;;;;;;;;;5030599;28;20627;-71
2023/09/07 04:31:38;;;;;;;4.88;3.95;;;17.10;99.90;;;;;;5048575;28;20120;-69
2023/09/07 04:34:05;;;;;;;6.25;3.50;;;;;;;;;;5048233;28;20094;-71
2023/09/07 04:36:31;;;;;;;6.53;4.43;;;;;;;;;;5030473;28;20061;-73
2023/09/07 04:38:57;;;;;;;6.85;3.95;;;;;;;;;;5030032;28;20049;-69
2023/09/07 04:41:23;;;;;;;7.28;4.35;;;;;;;;;;5048548;28;20098;-70
2023/09/07 04:43:49;;;;;;;8.20;4.57;;;17.10;99.90;;;;;;5013593;28;20400;-69
2023/09/07 04:46:15;;;;;;;9.25;4.03;;;;;;;;;;5022419;28;20041;-71
2023/09/07 04:48:41;;;;;;;8.43;4.47;;;17.60;99.90;;;;;;5030013;28;20049;-72
2023/09/07 04:51:08;;;;;;;6.75;4.53;;;17.60;99.90;;;;;;5048602;28;20044;-70
2023/09/07 04:53:35;;;;;;;8.75;4.18;;;16.90;99.90;;;;;;5048002;28;20492;-69
2023/09/07 04:56:05;;;;;;;8.70;4.47;;;17.70;99.90;;;;;;5048392;28;20041;-69
2023/09/07 04:58:31;;;;;;;8.88;4.63;;;;;;;;;;5047861;28;20059;-72
2023/09/07 05:01:08;;;;;;;5.22;4.00;;;17.70;99.90;;;;;;5029981;28;20636;-71
2023/09/07 05:03:34;;;;;;;8.95;4.63;;;;;;;;;;5046708;28;20048;-69
2023/09/07 05:06:00;;;;;;;8.85;4.88;;;;;;;;;;5047957;28;20032;-70
2023/09/07 05:08:26;;;;;;;7.18;4.88;;;;;;;;;;5029793;28;20045;-72
2023/09/07 05:10:56;;;;;;;12.50;4.88;;;17.80;99.90;;;;;;5029803;28;20073;-70
2023/09/07 05:13:22;;;;;;;6.72;4.47;;;;;;;;;;5029573;28;20772;-70
2023/09/07 05:15:49;;;;;;;9.00;4.65;;;17.60;99.90;;;;;;5047596;28;20055;-71
2023/09/07 05:18:15;;;;;;;7.70;4.38;;;17.70;99.90;;;;;;5029949;28;20041;-69
2023/09/07 05:20:41;;;;;;;9.82;4.72;;;;;;;;;;5029382;28;20053;-73
2023/09/07 05:23:06;;;;;;;8.55;4.40;;;;;;;;;;5011690;28;20507;-71
2023/09/07 05:25:32;;;;;;;7.57;4.40;;;;;;;;;;5047625;28;20174;-71
2023/09/07 05:27:58;;;;;;;7.00;4.40;;;;;;;;;;5039626;28;20045;-71
2023/09/07 05:30:24;;;;;;;6.22;4.15;;;;;;;;;;5046560;28;20041;-70
2023/09/07 05:32:50;;;;;;;7.72;4.30;;;17.60;99.90;;;;;;5046501;28;20041;-69
2023/09/07 05:35:16;;;;;;;7.70;4.50;;;;;;;;;;5043549;28;20047;-72
2023/09/07 05:37:42;;;;;;;9.60;4.50;;;17.60;99.90;;;;;;5041391;28;20160;-69
2023/09/07 05:40:08;;;;;;;6.35;4.70;;;17.80;99.90;;;;;;5043036;28;20144;-69
2023/09/07 05:42:34;;;;;;;6.85;4.15;;;;;;;;;;5028260;28;20064;-71
2023/09/07 05:45:00;;;;;;;6.63;4.50;;;17.90;99.90;;;;;;5012098;28;20059;-67
2023/09/07 05:47:26;;;;;;;6.18;4.20;;;;;;;;;;5046931;28;20090;-68
2023/09/07 05:49:52;;;;;;;9.02;4.82;;;;;;;;;;5045216;28;20803;-69
2023/09/07 05:52:18;;;;;;;6.75;4.97;;;;;;;;;;5044044;28;20037;-68
2023/09/07 05:54:44;;;;;;;8.75;4.82;;;;;;;;;;5028538;28;20048;-68
2023/09/07 05:57:10;;;;;;;5.68;4.35;;;;;;;;;;5046104;28;20049;-69
2023/09/07 05:59:35;;;;;;;7.60;5.28;;;18.50;99.90;;;;;;5012261;28;20518;-67
2023/09/07 06:02:01;;;;;;;7.47;4.70;;;18.40;99.90;;;;;;5028538;28;20045;-67
2023/09/07 06:04:27;;;;;;;6.88;4.20;;;;;;;;;;5027329;28;20048;-69
2023/09/07 06:06:52;;;;;;;10.57;4.82;;;18.60;99.90;;;;;;5028441;28;20048;-67
2023/09/07 06:09:19;;;;;;;7.13;4.47;;;;;;;;;;5043161;28;20044;-68
2023/09/07 06:11:45;;;;;;;7.85;4.50;;;;;;;;;;5028975;28;20049;-73
2023/09/07 06:14:11;;;;;;;6.15;4.63;;;19.40;99.90;;;;;;5013617;28;20056;-69
2023/09/07 06:16:37;;;;;;;7.38;4.35;;;19.70;99.90;;;;;;5042928;28;20049;-69
2023/09/07 06:19:02;;;;;;;6.65;4.05;;;19.90;99.90;;;;;;5021703;28;20045;-69
2023/09/07 06:21:28;;;;;;;9.60;3.92;;;19.80;99.90;;;;;;5024570;28;20367;-73
2023/09/07 06:23:53;;;;;;;4.75;3.90;;;21.60;99.90;;;;;;4998467;28;20045;-72
2023/09/07 06:26:19;;;;;;;5.78;4.32;;;20.40;99.90;;;;;;5022089;28;20047;-72
2023/09/07 06:28:45;;;;;;;7.57;3.92;;;20.80;99.90;;;;;;5035157;28;20128;-67
2023/09/07 06:31:10;;;;;;;4.55;3.60;;;21.00;99.90;;;;;;5033162;28;20085;-71
2023/09/07 06:33:36;;;;;;;6.20;3.65;;;21.00;99.90;;;;;;5028013;28;20043;-68
2023/09/07 06:36:02;;;;;;;5.82;3.72;;;21.50;99.90;;;;;;5045024;28;20126;-67
2023/09/07 06:38:28;;;;;;;11.65;4.60;;;21.90;99.90;;;;;;5042350;28;20056;-73
2023/09/07 06:40:53;;;;;;;4.55;3.22;;;21.90;99.90;;;;;;5029158;28;20049;-73
2023/09/07 06:43:19;;;;;;;5.15;3.95;;;22.00;99.90;;;;;;5023105;28;20040;-67
2023/09/07 06:45:44;;;;;;;6.63;3.25;;;21.80;99.90;;;;;;5036680;28;20175;-68
2023/09/07 06:48:10;;;;;;;6.18;4.07;;;22.30;99.90;;;;;;5036675;28;20037;-69
2023/09/07 06:50:36;;;;;;;7.18;3.78;;;22.60;99.90;;;;;;5036637;28;20037;-68
2023/09/07 06:53:02;;;;;;;7.18;4.10;;;22.80;99.90;;;;;;5024238;28;20063;-69
2023/09/07 06:55:30;;;;;;;8.27;3.72;;;22.70;99.90;;;;;;5024259;28;20064;-70
2023/09/07 06:57:56;;;;;;;5.85;3.38;;;23.50;99.90;;;;;;5027336;28;20477;-68
2023/09/07 07:00:21;;;;;;;7.15;3.67;;;22.40;99.90;;;;;;5043971;28;20037;-68
2023/09/07 07:02:49;;;;;;;3.92;3.35;;;22.00;99.90;;;;;;5045664;28;20033;-68
2023/09/07 07:05:15;;;;;;;5.70;3.53;;;22.10;99.90;;;;;;5023134;28;20154;-68
2023/09/07 07:07:40;;;;;;;5.70;3.50;;;22.20;99.90;;;;;;5030664;28;20041;-68
2023/09/07 07:10:07;;;;;;;6.97;3.35;;;24.30;99.90;;;;;;5012033;28;20033;-68
2023/09/07 07:12:38;;;;;;;7.07;3.80;;;22.30;99.90;;;;;;5042952;28;20060;-69
2023/09/07 07:15:04;;;;;;;7.07;3.92;;;21.90;99.90;;;;;;5040098;28;20043;-69
2023/09/07 07:17:30;;;;;;;4.88;3.47;;;22.30;99.90;;;;;;5028823;28;20065;-69
2023/09/07 07:19:55;;;;;;;5.63;3.60;;;23.40;99.90;;;;;;5037454;28;20376;-70
2023/09/07 07:22:21;;;;;;;5.78;3.65;;;22.50;99.90;;;;;;5042078;28;20118;-68
2023/09/07 07:24:46;;;;;;;9.20;3.20;;;22.30;99.90;;;;;;5025206;28;20112;-68
2023/09/07 07:27:12;;;;;;;6.10;3.58;;;22.30;99.90;;;;;;5045496;28;20148;-68
2023/09/07 07:29:38;;;;;;;7.28;3.40;;;22.40;99.90;;;;;;5029736;28;20148;-70
2023/09/07 07:32:04;;;;;;;5.93;3.45;;;22.40;99.90;;;;;;5019253;28;20497;-71
2023/09/07 07:34:29;;;;;;;9.13;3.55;;;22.90;99.90;;;;;;5044251;28;20055;-71
2023/09/07 07:36:55;;;;;;;6.93;3.47;;;22.70;99.90;;;;;;5011450;28;20044;-69
2023/09/07 07:39:20;;;;;;;7.32;3.20;;;23.40;99.90;;;;;;5046000;28;20049;-70
2023/09/07 07:41:46;;;;;;;5.57;3.42;;;22.50;99.90;;;;;;5029690;28;20052;-69
2023/09/07 07:44:12;;;;;;;6.35;4.63;;;22.70;99.90;;;;;;5041397;28;20365;-72
2023/09/07 07:46:38;;;;;;;5.72;3.47;;;22.60;99.90;;;;;;5029914;28;20474;-72
2023/09/07 07:49:03;;;;;;;6.25;2.97;;;22.50;99.90;;;;;;5031123;28;20162;-71
2023/09/07 07:51:29;;;;;;;6.60;3.47;;;22.50;99.90;;;;;;5021850;28;20036;-70
2023/09/07 07:53:58;;;;;;;5.13;3.05;;;22.20;99.90;;;;;;5047589;28;20048;-69
2023/09/07 07:56:24;;;;;;;5.45;3.65;;;23.90;99.90;;;;;;5015096;28;20492;-69
2023/09/07 07:58:50;;;;;;;9.07;3.30;;;22.50;99.90;;;;;;5031766;28;20119;-70
2023/09/07 08:01:17;;;;;;;4.80;3.90;;;22.30;99.90;;;;;;5045777;28;20220;-68
2023/09/07 08:03:43;;;;;;;4.38;3.08;;;22.50;99.90;;;;;;5048195;28;20079;-69
2023/09/07 08:06:10;;;;;;;6.32;3.60;;;22.40;99.90;;;;;;5046211;28;20037;-69
2023/09/07 08:08:36;;;;;;;9.73;4.00;;;22.40;99.90;;;;;;5046770;28;20041;-69
2023/09/07 08:11:05;;;;;;;9.18;3.65;;;22.30;99.90;;;;;;5035937;28;20389;-68
2023/09/07 08:13:32;;;;;;;6.05;3.28;;;22.40;99.90;;;;;;5047554;28;20040;-70
2023/09/07 08:15:58;;;;;;;6.13;3.50;;;22.20;99.90;;;;;;5047973;28;20032;-69
2023/09/07 08:18:24;;;;;;;7.93;3.20;;;22.50;99.90;;;;;;5044621;28;20056;-70
2023/09/07 08:20:49;;;;;;;5.57;3.63;;;22.40;99.90;;;;;;5028317;28;20091;-69
2023/09/07 08:23:15;;;;;;;4.25;3.22;;;22.80;99.90;;;;;;5034819;28;20080;-69
2023/09/07 08:25:44;;;;;;;7.50;3.13;;;22.70;99.90;;;;;;5028267;28;20087;-69
2023/09/07 08:28:10;;;;;;;5.00;3.80;;;22.50;99.90;;;;;;5029583;28;20061;-70
2023/09/07 08:30:37;;;;;;;5.68;3.05;;;22.70;99.90;;;;;;5030771;28;20037;-69
2023/09/07 08:33:05;;;;;;;7.32;3.20;;;22.90;99.90;;;;;;5048193;28;20043;-72
2023/09/07 08:35:35;;;;;;;5.50;3.63;;;23.00;99.90;;;;;;5047062;28;20040;-72
2023/09/07 08:38:08;;;;;;;5.30;3.28;;;23.10;99.90;;;;;;5028925;28;20068;-71
2023/09/07 08:40:35;;;;;;;5.35;3.13;;;23.10;99.90;;;;;;5030729;28;20045;-73
2023/09/07 08:43:05;;;;;;;5.35;2.85;;;23.30;99.90;;;;;;5049152;28;20045;-70
2023/09/07 08:45:36;;;;;;;8.05;3.60;;;23.20;99.90;;;;;;5029222;28;20102;-69
2023/09/07 08:48:03;;;;;;;7.43;3.53;;;23.20;99.90;;;;;;5047939;28;20045;-71
2023/09/07 08:50:31;;;;;;;4.80;3.10;;;23.30;99.90;;;;;;5027280;28;20047;-73
2023/09/07 08:52:59;;;;;;;5.97;3.13;;;23.40;99.90;;;;;;5030836;28;20049;-73
2023/09/07 08:55:25;;;;;;;5.68;2.95;;;23.40;99.90;;;;;;5022366;28;20044;-71
2023/09/07 08:57:51;;;;;;;6.75;2.90;;;23.50;99.90;;;;;;5029938;28;20048;-69
2023/09/07 09:00:17;;;;;;;6.97;3.20;;;23.80;99.90;;;;;;5027417;28;20420;-69
2023/09/07 09:02:45;;;;;;;6.15;2.58;;;23.80;99.90;;;;;;5048236;28;20048;-71
2023/09/07 09:05:14;;;;;;;7.65;3.58;;;24.00;99.90;;;;;;5030675;28;20076;-73
2023/09/07 09:07:39;;;;;;;8.77;3.40;;;23.90;99.90;;;;;;5033755;28;20045;-72
2023/09/07 09:10:09;;;;;;;4.47;3.10;;;24.50;99.90;;;;;;5030891;28;20041;-71
2023/09/07 09:12:35;;;;;;;4.68;3.47;;;24.70;99.90;;;;;;5030148;28;20049;-70
2023/09/07 09:15:03;;;;;;;8.02;3.03;;;25.90;99.90;;;;;;5029659;28;20048;-70
2023/09/07 09:17:29;;;;;;;5.15;3.15;;;26.20;99.90;;;;;;5029764;28;20056;-70
2023/09/07 09:19:54;;;;;;;6.88;3.40;;;24.70;99.90;;;;;;5029594;28;20037;-73
2023/09/07 09:22:20;;;;;;;6.57;3.88;;;24.80;99.90;;;;;;5046598;28;20110;-72
2023/09/07 09:24:49;;;;;;;8.70;3.08;;;25.00;99.90;;;;;;5045813;28;20580;-71
2023/09/07 09:27:14;;;;;;;6.43;2.90;;;24.80;99.90;;;;;;5029625;28;20499;-73
2023/09/07 09:29:40;;;;;;;6.13;3.03;;;26.30;99.90;;;;;;5029015;28;20040;-72
2023/09/07 09:32:13;;;;;;;5.88;3.40;;;25.20;99.90;;;;;;5046128;28;20037;-72
2023/09/07 09:34:39;;;;;;;8.13;3.08;;;25.50;99.90;;;;;;5028382;28;20052;-69
2023/09/07 09:37:13;;;;;;;7.40;3.20;;;25.40;99.90;;;;;;5043542;28;20048;-70
2023/09/07 09:39:40;;;;;;;6.43;2.65;;;25.60;99.90;;;;;;5026396;28;20052;-69
2023/09/07 09:42:05;;;;;;;6.75;2.65;;;25.80;99.90;;;;;;5041922;28;20075;-68
2023/09/07 09:44:32;;;;;;;4.10;2.38;;;26.00;99.90;;;;;;5023599;28;20581;-70
2023/09/07 09:46:59;;;;;;;5.93;2.92;;;26.30;99.90;;;;;;5028805;28;20817;-70
2023/09/07 09:49:26;;;;;;;4.35;2.72;;;25.70;99.90;;;;;;5026888;28;20164;-70
2023/09/07 09:51:51;;;;;;;5.65;2.88;;;26.10;99.90;;;;;;5027620;28;20045;-70
2023/09/07 09:54:18;;;;;;;6.75;2.90;;;26.10;99.90;;;;;;5042425;28;20048;-68
2023/09/07 09:56:44;;;;;;;5.22;2.97;;;26.40;99.90;;;;;;5024863;28;20225;-71
2023/09/07 09:59:10;;;;;;;6.28;2.50;;;26.30;99.90;;;;;;5043334;28;20412;-69
2023/09/07 10:01:44;;;;;;;5.80;2.47;;;27.90;99.90;;;;;;5025945;28;20106;-72
2023/09/07 10:04:12;;;;;;;5.17;2.83;;;26.50;99.90;;;;;;5026978;28;20041;-73
2023/09/07 10:06:38;;;;;;;6.40;2.65;;;26.60;99.90;;;;;;5019863;28;20303;-72
2023/09/07 10:09:10;;;;;;;10.15;2.97;;;26.80;99.90;;;;;;5025214;28;20052;-72
2023/09/07 10:11:39;;;;;;;4.88;2.55;;;26.60;99.90;;;;;;5040755;28;20052;-73
2023/09/07 10:14:06;;;;;;;3.60;2.72;;;28.10;99.90;;;;;;5042179;28;20045;-73
2023/09/07 10:16:43;;;;;;;4.63;2.70;;;26.20;99.90;;;;;;5037718;28;20052;-70
2023/09/07 10:19:22;;;;;;;7.68;2.78;;;26.70;99.90;;;;;;5025633;28;20127;-71
2023/09/07 10:21:49;;;;;;;4.07;2.90;;;26.50;99.90;;;;;;5018187;28;20425;-72
2023/09/07 10:24:35;;;;;;;4.45;3.22;;;26.50;99.90;;;;;;5061059;23;20462;-87
2023/09/07 10:27:10;;;;;;;5.55;2.70;;;27.40;99.90;;;;;;5030586;28;20087;-91
2023/09/07 10:29:46;;;;;;;3.75;2.38;;;27.40;99.90;;;;;;5045927;28;20046;-90
2023/09/07 10:32:14;;;;;;;4.10;2.38;;;27.80;99.90;;;;;;5038815;28;20563;-89
2023/09/07 10:34:43;;;;;;;4.35;2.75;;;26.80;99.90;;;;;;4998373;28;20087;-90
2023/09/07 10:37:19;;;;;;;5.78;3.00;;;27.40;99.90;;;;;;4994626;28;20052;-91
2023/09/07 10:39:45;;;;;;;4.13;2.88;;;28.10;99.90;;;;;;4993205;28;20053;-92
2023/09/07 10:42:37;;;;;;;7.88;2.90;;;28.00;99.90;;;;;;4993378;28;20555;-90
2023/09/07 10:45:18;;;;;;;4.55;2.50;;;25.20;99.90;;;;;;5010474;28;20089;-91
2023/09/07 10:47:44;;;;;;;5.43;2.63;;;26.50;99.90;;;;;;4994381;28;20038;-91
2023/09/07 10:50:12;;;;;;;4.20;2.95;;;28.60;99.90;;;;;;5011929;28;20068;-91
2023/09/07 10:52:39;;;;;;;4.80;3.00;;;28.20;99.90;;;;;;5014239;28;20044;-91
2023/09/07 10:55:06;;;;;;;4.55;2.45;;;28.10;99.90;;;;;;5013276;28;20037;-91
2023/09/07 10:57:31;;;;;;;6.60;2.53;;;26.40;99.90;;;;;;5022906;28;20045;-92
2023/09/07 11:00:03;;;;;;;6.13;3.03;;;27.60;99.90;;;;;;5031916;28;20044;-91
2023/09/07 11:02:29;;;;;;;4.00;2.25;;;26.30;99.90;;;;;;5037883;28;20048;-92
2023/09/07 11:04:55;;;;;;;4.28;2.40;;;29.00;99.90;;;;;;5048849;28;20118;-92
2023/09/07 11:07:21;;;;;;;5.25;2.58;;;27.80;99.90;;;;;;5052105;28;20041;-93
2023/09/07 11:09:51;;;;;;;6.07;2.30;;;28.20;99.90;;;;;;5051160;28;20041;-92
2023/09/07 11:12:21;;;;;;;3.75;2.15;;;26.00;99.90;;;;;;5035293;28;20140;-91
2023/09/07 11:14:53;;;;;;;5.72;2.72;;;27.20;99.90;;;;;;5035211;28;20033;-91
2023/09/07 11:17:25;;;;;;;4.28;2.58;;;28.50;99.90;;;;;;5034658;28;20040;-92
2023/09/07 11:19:54;;;;;;;4.28;3.10;;;27.10;99.90;;;;;;5021104;28;20041;-91
2023/09/07 11:22:20;;;;;;;3.63;2.13;;;24.30;99.90;;;;;;5028984;23;20072;-68
2023/09/07 11:24:46;;;;;;;4.35;2.10;;;26.80;99.90;;;;;;5049807;28;20053;-70
2023/09/07 11:27:12;;;;;;;3.42;2.00;;;26.70;99.90;;;;;;5042501;28;20395;-74
2023/09/07 11:29:39;;;;;;;7.22;2.20;;;26.70;99.90;;;;;;5029906;28;20052;-69
2023/09/07 11:32:11;;;;;;;3.13;1.85;;;26.80;99.90;;;;;;5057026;28;20036;-68
2023/09/07 11:34:49;;;;;;;4.15;2.50;;;26.60;99.90;;;;;;5058101;28;20032;-69
2023/09/07 11:37:14;;;;;;;4.30;2.05;;;28.10;99.90;;;;;;5039215;28;20071;-75
2023/09/07 11:39:40;;;;;;;4.85;2.53;;;26.60;99.90;;;;;;5059265;28;20040;-68
2023/09/07 11:42:05;;;;;;;6.80;2.55;;;26.90;99.90;;;;;;5045509;28;20045;-68
2023/09/07 11:44:31;;;;;;;3.70;2.10;;;27.00;99.90;;;;;;5040783;28;20115;-71
2023/09/07 11:46:56;;;;;;;4.68;2.45;;;27.10;99.90;;;;;;5051902;28;20043;-69
2023/09/07 11:49:22;;;;;;;4.38;2.50;;;27.30;99.90;;;;;;5032673;28;20059;-71
2023/09/07 11:51:47;;;;;;;3.92;2.13;;;26.90;99.90;;;;;;5048711;28;20048;-70
2023/09/07 11:54:13;;;;;;;3.90;2.25;;;27.30;99.90;;;;;;5037950;28;20404;-68
2023/09/07 11:56:42;;;;;;;4.95;2.55;;;26.90;99.90;;;;;;5055387;28;20045;-70
2023/09/07 11:59:09;;;;;;;14.85;3.33;;;28.60;99.90;;;;;;5044023;28;20089;-69
2023/09/07 12:01:35;;;;;;;6.65;2.78;;;27.20;99.90;;;;;;5053402;28;20048;-69
2023/09/07 12:04:00;;;;;;;7.18;2.40;;;27.00;99.90;;;;;;5051331;28;20041;-69
2023/09/07 12:06:26;;;;;;;7.65;2.38;;;27.10;99.90;;;;;;5056871;28;20032;-69
2023/09/07 12:09:11;;;;;;;5.68;2.28;;;27.20;99.90;;;;;;5058963;28;20044;-65
2023/09/07 12:11:37;;;;;;;3.55;2.30;;;27.30;99.90;;;;;;5041949;28;20102;-71
2023/09/07 12:14:04;;;;;;;4.85;2.22;;;27.40;99.90;;;;;;5057330;28;20048;-69
2023/09/07 12:16:30;;;;;;;4.05;2.38;;;27.60;99.90;;;;;;5044644;28;20560;-70
2023/09/07 12:18:56;;;;;;;4.32;2.55;;;27.40;99.90;;;;;;5045007;28;20059;-69
2023/09/07 12:21:21;;;;;;;3.50;2.35;;;27.50;99.90;;;;;;5047149;28;20029;-73
2023/09/07 12:23:47;;;;;;;6.47;2.85;;;27.60;99.90;;;;;;5043404;28;20098;-73
2023/09/07 12:26:14;;;;;;;4.78;2.72;;;27.20;99.90;;;;;;5035829;28;20515;-73
2023/09/07 12:28:40;;;;;;;4.25;2.17;;;27.70;99.90;;;;;;5051994;28;20048;-73
2023/09/07 12:31:05;;;;;;;6.05;2.47;;;27.30;99.90;;;;;;5042065;28;20047;-75
2023/09/07 12:33:32;;;;;;;5.03;2.08;;;28.20;99.90;;;;;;5061099;28;20040;-74
2023/09/07 12:35:58;;;;;;;6.30;2.65;;;27.70;99.90;;;;;;5041057;28;20465;-74
2023/09/07 12:38:28;;;;;;;5.03;2.65;;;27.70;99.90;;;;;;5059732;28;20076;-75
2023/09/07 12:40:54;;;;;;;3.95;2.60;;;28.00;99.90;;;;;;5060782;28;20051;-73
2023/09/07 12:43:19;;;;;;;2.47;1.63;;;28.10;99.90;;;;;;5038323;28;20040;-75
2023/09/07 12:45:48;;;;;;;5.32;2.08;;;29.80;99.90;;;;;;5044886;28;20240;-74
2023/09/07 12:48:13;;;;;;;6.13;2.38;;;29.10;99.90;;;;;;5047174;28;20049;-74
2023/09/07 12:50:40;;;;;;;10.32;3.10;;;27.80;99.90;;;;;;5047346;28;20487;-74
2023/09/07 12:53:06;;;;;;;3.47;2.53;;;27.80;99.90;;;;;;5055652;28;20048;-74
2023/09/07 12:55:32;;;;;;;4.43;2.50;;;28.00;99.90;;;;;;5033028;28;20055;-74
2023/09/07 12:57:58;;;;;;;5.80;2.58;;;27.50;99.90;;;;;;5042246;28;20417;-74
2023/09/07 13:00:24;;;;;;;5.63;2.47;;;28.50;99.90;;;;;;5043961;28;20044;-74
2023/09/07 13:02:50;;;;;;;5.10;2.03;;;27.70;99.90;;;;;;5043185;28;20055;-74